Lisbon, New Hampshire
Current Conditions -  °F | °C
As of 12:17 PM on Sunday 21 Dec 2014 (Local Time) from KHIE Reporting Station
Light Snow Light Snow  
Wind Chill: 25°   Ceiling: 4800
Heat Index: 25°   Visibility: 3mi
Dew Point: 19°   Wind: 0mph
Humidity: 78%   Direction: NA
Pressure: 30.28"   Gusts: NA
Location:  44.21°N, 71.9°W
Report Text: KHIE 211717Z AUTO 00000KT 3SM -SN FEW031 OVC048 M04/M07 A3028 RMK AO2 P0000 T10391072
Loading
Personal Weather Stations






























Interactive Weather Map New forecast layout! Learn more

10-Day Weather Forecast

Advertisements
Track Severe Weather on mobile